sensor_id;sensor_type;location;lat;lon;timestamp;P1;durP1;ratioP1;P2;durP2;ratioP2
58567;SDS011;44354;46.192;-1.076;2022-12-18T00:00:20;2.85;;;2.75;;
58567;SDS011;44354;46.192;-1.076;2022-12-18T00:02:50;3.85;;;3.60;;
58567;SDS011;44354;46.192;-1.076;2022-12-18T00:05:16;2.80;;;2.70;;
58567;SDS011;44354;46.192;-1.076;2022-12-18T00:07:42;3.08;;;2.97;;
58567;SDS011;44354;46.192;-1.076;2022-12-18T00:10:07;3.40;;;3.30;;
58567;SDS011;44354;46.192;-1.076;2022-12-18T00:12:33;2.67;;;2.58;;
58567;SDS011;44354;46.192;-1.076;2022-12-18T00:15:00;2.90;;;2.80;;
58567;SDS011;44354;46.192;-1.076;2022-12-18T00:17:44;3.38;;;3.28;;
58567;SDS011;44354;46.192;-1.076;2022-12-18T00:20:14;4.18;;;3.97;;
58567;SDS011;44354;46.192;-1.076;2022-12-18T00:22:43;3.40;;;3.30;;
58567;SDS011;44354;46.192;-1.076;2022-12-18T00:25:15;3.28;;;3.17;;
58567;SDS011;44354;46.192;-1.076;2022-12-18T00:27:44;4.70;;;4.38;;
58567;SDS011;44354;46.192;-1.076;2022-12-18T00:30:11;4.75;;;4.45;;
58567;SDS011;44354;46.192;-1.076;2022-12-18T00:33:03;3.08;;;2.97;;
58567;SDS011;44354;46.192;-1.076;2022-12-18T00:35:32;3.50;;;3.40;;
58567;SDS011;44354;46.192;-1.076;2022-12-18T00:38:10;3.38;;;3.28;;
58567;SDS011;44354;46.192;-1.076;2022-12-18T00:40:44;3.20;;;3.10;;
58567;SDS011;44354;46.192;-1.076;2022-12-18T00:44:00;3.95;;;3.75;;
58567;SDS011;44354;46.192;-1.076;2022-12-18T00:50:29;3.35;;;3.25;;
58567;SDS011;44354;46.192;-1.076;2022-12-18T00:53:03;3.35;;;3.25;;
58567;SDS011;44354;46.192;-1.076;2022-12-18T00:56:20;3.85;;;3.65;;
58567;SDS011;44354;46.192;-1.076;2022-12-18T00:59:16;2.85;;;2.75;;
58567;SDS011;44354;46.192;-1.076;2022-12-18T01:01:59;3.75;;;3.55;;
58567;SDS011;44354;46.192;-1.076;2022-12-18T01:04:48;3.17;;;3.00;;
58567;SDS011;44354;46.192;-1.076;2022-12-18T01:07:20;3.03;;;2.92;;
58567;SDS011;44354;46.192;-1.076;2022-12-18T01:10:50;2.83;;;2.72;;
58567;SDS011;44354;46.192;-1.076;2022-12-18T01:13:20;2.90;;;2.80;;
58567;SDS011;44354;46.192;-1.076;2022-12-18T01:16:27;2.95;;;2.85;;
58567;SDS011;44354;46.192;-1.076;2022-12-18T01:18:56;2.53;;;2.42;;
58567;SDS011;44354;46.192;-1.076;2022-12-18T01:21:28;3.10;;;3.00;;
58567;SDS011;44354;46.192;-1.076;2022-12-18T01:24:33;4.13;;;3.92;;
58567;SDS011;44354;46.192;-1.076;2022-12-18T01:27:16;3.80;;;3.60;;
58567;SDS011;44354;46.192;-1.076;2022-12-18T01:29:41;3.90;;;3.70;;
58567;SDS011;44354;46.192;-1.076;2022-12-18T01:32:08;2.92;;;2.83;;
58567;SDS011;44354;46.192;-1.076;2022-12-18T01:34:52;5.90;;;4.13;;
58567;SDS011;44354;46.192;-1.076;2022-12-18T01:37:30;3.97;;;3.78;;
58567;SDS011;44354;46.192;-1.076;2022-12-18T01:40:38;3.65;;;3.53;;
58567;SDS011;44354;46.192;-1.076;2022-12-18T01:43:09;3.28;;;3.17;;
58567;SDS011;44354;46.192;-1.076;2022-12-18T01:45:49;2.78;;;2.67;;
58567;SDS011;44354;46.192;-1.076;2022-12-18T01:48:17;2.78;;;2.67;;
58567;SDS011;44354;46.192;-1.076;2022-12-18T01:50:54;3.78;;;3.58;;
58567;SDS011;44354;46.192;-1.076;2022-12-18T01:53:22;2.70;;;2.60;;
58567;SDS011;44354;46.192;-1.076;2022-12-18T01:55:52;3.15;;;3.05;;
58567;SDS011;44354;46.192;-1.076;2022-12-18T01:58:23;3.60;;;3.40;;
58567;SDS011;44354;46.192;-1.076;2022-12-18T02:01:07;3.50;;;3.40;;
58567;SDS011;44354;46.192;-1.076;2022-12-18T02:03:44;3.67;;;3.50;;
58567;SDS011;44354;46.192;-1.076;2022-12-18T02:06:29;3.60;;;3.42;;
58567;SDS011;44354;46.192;-1.076;2022-12-18T02:09:37;3.40;;;3.30;;
58567;SDS011;44354;46.192;-1.076;2022-12-18T02:12:20;3.42;;;3.33;;
58567;SDS011;44354;46.192;-1.076;2022-12-18T02:15:06;3.30;;;3.20;;
58567;SDS011;44354;46.192;-1.076;2022-12-18T02:24:50;3.20;;;3.10;;
58567;SDS011;44354;46.192;-1.076;2022-12-18T02:27:47;4.60;;;4.40;;
58567;SDS011;44354;46.192;-1.076;2022-12-18T02:30:17;4.95;;;4.57;;
58567;SDS011;44354;46.192;-1.076;2022-12-18T02:32:45;4.07;;;3.78;;
58567;SDS011;44354;46.192;-1.076;2022-12-18T02:35:17;3.38;;;3.28;;
58567;SDS011;44354;46.192;-1.076;2022-12-18T02:37:47;3.40;;;3.30;;
58567;SDS011;44354;46.192;-1.076;2022-12-18T02:40:16;3.45;;;3.35;;
58567;SDS011;44354;46.192;-1.076;2022-12-18T02:42:43;3.80;;;3.60;;
58567;SDS011;44354;46.192;-1.076;2022-12-18T02:45:09;4.82;;;4.60;;
58567;SDS011;44354;46.192;-1.076;2022-12-18T02:47:42;3.67;;;3.53;;
58567;SDS011;44354;46.192;-1.076;2022-12-18T02:50:19;4.60;;;4.40;;
58567;SDS011;44354;46.192;-1.076;2022-12-18T02:52:56;3.75;;;3.55;;
58567;SDS011;44354;46.192;-1.076;2022-12-18T02:55:42;3.80;;;3.60;;
58567;SDS011;44354;46.192;-1.076;2022-12-18T03:01:31;3.22;;;3.13;;
58567;SDS011;44354;46.192;-1.076;2022-12-18T03:03:52;3.63;;;3.42;;
58567;SDS011;44354;46.192;-1.076;2022-12-18T03:06:32;3.17;;;3.08;;
58567;SDS011;44354;46.192;-1.076;2022-12-18T03:09:04;3.17;;;3.08;;
58567;SDS011;44354;46.192;-1.076;2022-12-18T03:11:35;3.10;;;3.00;;
58567;SDS011;44354;46.192;-1.076;2022-12-18T03:14:22;3.38;;;3.28;;
58567;SDS011;44354;46.192;-1.076;2022-12-18T03:16:53;3.45;;;3.35;;
58567;SDS011;44354;46.192;-1.076;2022-12-18T03:19:26;3.03;;;2.92;;
58567;SDS011;44354;46.192;-1.076;2022-12-18T03:21:56;3.03;;;2.92;;
58567;SDS011;44354;46.192;-1.076;2022-12-18T03:24:26;3.50;;;3.40;;
58567;SDS011;44354;46.192;-1.076;2022-12-18T03:26:54;3.13;;;3.03;;
58567;SDS011;44354;46.192;-1.076;2022-12-18T03:29:26;3.50;;;3.40;;
58567;SDS011;44354;46.192;-1.076;2022-12-18T03:32:02;3.42;;;3.33;;
58567;SDS011;44354;46.192;-1.076;2022-12-18T03:34:34;3.47;;;3.38;;
58567;SDS011;44354;46.192;-1.076;2022-12-18T03:37:02;3.33;;;3.22;;
58567;SDS011;44354;46.192;-1.076;2022-12-18T03:39:29;3.10;;;3.00;;
58567;SDS011;44354;46.192;-1.076;2022-12-18T03:41:58;3.13;;;3.03;;
58567;SDS011;44354;46.192;-1.076;2022-12-18T03:47:08;3.53;;;3.42;;
58567;SDS011;44354;46.192;-1.076;2022-12-18T03:49:39;3.40;;;3.30;;
58567;SDS011;44354;46.192;-1.076;2022-12-18T03:52:30;3.30;;;3.20;;
58567;SDS011;44354;46.192;-1.076;2022-12-18T03:55:07;3.25;;;3.15;;
58567;SDS011;44354;46.192;-1.076;2022-12-18T03:57:34;3.28;;;3.17;;
58567;SDS011;44354;46.192;-1.076;2022-12-18T04:00:04;3.40;;;3.30;;
58567;SDS011;44354;46.192;-1.076;2022-12-18T04:02:33;3.20;;;3.10;;
58567;SDS011;44354;46.192;-1.076;2022-12-18T04:05:02;3.10;;;3.00;;
58567;SDS011;44354;46.192;-1.076;2022-12-18T04:07:35;3.60;;;3.45;;
58567;SDS011;44354;46.192;-1.076;2022-12-18T04:10:02;4.05;;;3.85;;
58567;SDS011;44354;46.192;-1.076;2022-12-18T04:12:31;3.15;;;3.05;;
58567;SDS011;44354;46.192;-1.076;2022-12-18T04:14:57;2.85;;;2.75;;
58567;SDS011;44354;46.192;-1.076;2022-12-18T04:17:23;2.80;;;2.70;;
58567;SDS011;44354;46.192;-1.076;2022-12-18T04:19:49;3.40;;;3.30;;
58567;SDS011;44354;46.192;-1.076;2022-12-18T04:22:15;3.45;;;3.28;;
58567;SDS011;44354;46.192;-1.076;2022-12-18T04:24:40;3.00;;;2.90;;
58567;SDS011;44354;46.192;-1.076;2022-12-18T04:27:12;2.95;;;2.85;;
58567;SDS011;44354;46.192;-1.076;2022-12-18T04:29:45;2.60;;;2.50;;
58567;SDS011;44354;46.192;-1.076;2022-12-18T04:32:13;2.80;;;2.70;;
58567;SDS011;44354;46.192;-1.076;2022-12-18T04:34:41;3.42;;;3.30;;
58567;SDS011;44354;46.192;-1.076;2022-12-18T04:37:08;2.63;;;2.53;;
58567;SDS011;44354;46.192;-1.076;2022-12-18T04:39:40;3.47;;;3.35;;
58567;SDS011;44354;46.192;-1.076;2022-12-18T04:42:16;2.60;;;2.50;;
58567;SDS011;44354;46.192;-1.076;2022-12-18T04:45:08;2.83;;;2.67;;
58567;SDS011;44354;46.192;-1.076;2022-12-18T04:47:35;7.03;;;3.63;;
58567;SDS011;44354;46.192;-1.076;2022-12-18T04:50:20;2.20;;;2.10;;
58567;SDS011;44354;46.192;-1.076;2022-12-18T04:52:48;1.95;;;1.85;;
58567;SDS011;44354;46.192;-1.076;2022-12-18T04:55:14;1.73;;;1.70;;
58567;SDS011;44354;46.192;-1.076;2022-12-18T04:57:45;1.50;;;1.50;;
58567;SDS011;44354;46.192;-1.076;2022-12-18T05:00:12;1.98;;;1.88;;
58567;SDS011;44354;46.192;-1.076;2022-12-18T05:02:52;1.60;;;1.60;;
58567;SDS011;44354;46.192;-1.076;2022-12-18T05:05:36;1.83;;;1.73;;
58567;SDS011;44354;46.192;-1.076;2022-12-18T05:08:10;1.95;;;1.85;;
58567;SDS011;44354;46.192;-1.076;2022-12-18T05:13:36;4.95;;;4.60;;
58567;SDS011;44354;46.192;-1.076;2022-12-18T05:16:02;1.63;;;1.63;;
58567;SDS011;44354;46.192;-1.076;2022-12-18T05:18:51;1.30;;;1.30;;
58567;SDS011;44354;46.192;-1.076;2022-12-18T05:21:20;1.30;;;1.30;;
58567;SDS011;44354;46.192;-1.076;2022-12-18T05:23:50;1.60;;;1.60;;
58567;SDS011;44354;46.192;-1.076;2022-12-18T05:26:38;1.30;;;1.30;;
58567;SDS011;44354;46.192;-1.076;2022-12-18T05:30:11;1.25;;;1.25;;
58567;SDS011;44354;46.192;-1.076;2022-12-18T05:32:54;1.20;;;1.20;;
58567;SDS011;44354;46.192;-1.076;2022-12-18T05:38:41;1.13;;;1.13;;
58567;SDS011;44354;46.192;-1.076;2022-12-18T05:41:07;0.90;;;0.90;;
58567;SDS011;44354;46.192;-1.076;2022-12-18T05:43:36;1.17;;;1.17;;
58567;SDS011;44354;46.192;-1.076;2022-12-18T05:46:11;1.33;;;1.33;;
58567;SDS011;44354;46.192;-1.076;2022-12-18T05:48:46;0.95;;;0.95;;
58567;SDS011;44354;46.192;-1.076;2022-12-18T05:51:14;1.85;;;1.75;;
58567;SDS011;44354;46.192;-1.076;2022-12-18T05:53:44;0.90;;;0.90;;
58567;SDS011;44354;46.192;-1.076;2022-12-18T05:56:13;0.70;;;0.70;;
58567;SDS011;44354;46.192;-1.076;2022-12-18T05:58:47;0.90;;;0.90;;
58567;SDS011;44354;46.192;-1.076;2022-12-18T06:01:41;1.23;;;1.23;;
58567;SDS011;44354;46.192;-1.076;2022-12-18T06:04:19;0.95;;;0.95;;
58567;SDS011;44354;46.192;-1.076;2022-12-18T06:06:59;1.23;;;1.23;;
58567;SDS011;44354;46.192;-1.076;2022-12-18T06:09:40;0.90;;;0.90;;
58567;SDS011;44354;46.192;-1.076;2022-12-18T06:12:07;1.83;;;1.73;;
58567;SDS011;44354;46.192;-1.076;2022-12-18T06:14:34;0.80;;;0.80;;
58567;SDS011;44354;46.192;-1.076;2022-12-18T06:17:01;0.80;;;0.80;;
58567;SDS011;44354;46.192;-1.076;2022-12-18T06:19:28;0.80;;;0.80;;
58567;SDS011;44354;46.192;-1.076;2022-12-18T06:21:55;1.10;;;1.10;;
58567;SDS011;44354;46.192;-1.076;2022-12-18T06:24:24;1.85;;;1.30;;
58567;SDS011;44354;46.192;-1.076;2022-12-18T06:26:49;1.42;;;1.33;;
58567;SDS011;44354;46.192;-1.076;2022-12-18T06:29:21;0.88;;;0.88;;
58567;SDS011;44354;46.192;-1.076;2022-12-18T06:31:59;0.80;;;0.80;;
58567;SDS011;44354;46.192;-1.076;2022-12-18T06:34:40;1.08;;;1.08;;
58567;SDS011;44354;46.192;-1.076;2022-12-18T06:37:19;0.63;;;0.63;;
58567;SDS011;44354;46.192;-1.076;2022-12-18T06:39:59;1.67;;;0.75;;
58567;SDS011;44354;46.192;-1.076;2022-12-18T06:42:35;0.70;;;0.70;;
58567;SDS011;44354;46.192;-1.076;2022-12-18T06:45:01;0.77;;;0.77;;
58567;SDS011;44354;46.192;-1.076;2022-12-18T06:47:32;0.50;;;0.50;;
58567;SDS011;44354;46.192;-1.076;2022-12-18T06:50:18;0.52;;;0.52;;
58567;SDS011;44354;46.192;-1.076;2022-12-18T06:52:47;0.40;;;0.40;;
58567;SDS011;44354;46.192;-1.076;2022-12-18T06:55:14;0.40;;;0.40;;
58567;SDS011;44354;46.192;-1.076;2022-12-18T06:57:42;0.80;;;0.45;;
58567;SDS011;44354;46.192;-1.076;2022-12-18T07:00:08;0.30;;;0.30;;
58567;SDS011;44354;46.192;-1.076;2022-12-18T07:02:34;0.20;;;0.20;;
58567;SDS011;44354;46.192;-1.076;2022-12-18T07:05:00;0.20;;;0.20;;
58567;SDS011;44354;46.192;-1.076;2022-12-18T07:07:26;1.95;;;1.85;;
58567;SDS011;44354;46.192;-1.076;2022-12-18T07:09:52;0.20;;;0.20;;
58567;SDS011;44354;46.192;-1.076;2022-12-18T07:12:20;0.20;;;0.20;;
58567;SDS011;44354;46.192;-1.076;2022-12-18T07:14:46;0.30;;;0.30;;
58567;SDS011;44354;46.192;-1.076;2022-12-18T07:17:12;0.30;;;0.30;;
58567;SDS011;44354;46.192;-1.076;2022-12-18T07:19:38;0.47;;;0.45;;
58567;SDS011;44354;46.192;-1.076;2022-12-18T07:22:05;1.42;;;1.33;;
58567;SDS011;44354;46.192;-1.076;2022-12-18T07:24:32;0.75;;;0.65;;
58567;SDS011;44354;46.192;-1.076;2022-12-18T07:26:58;0.30;;;0.30;;
58567;SDS011;44354;46.192;-1.076;2022-12-18T07:29:24;0.20;;;0.20;;
58567;SDS011;44354;46.192;-1.076;2022-12-18T07:31:50;1.00;;;1.00;;
58567;SDS011;44354;46.192;-1.076;2022-12-18T07:34:19;0.30;;;0.30;;
58567;SDS011;44354;46.192;-1.076;2022-12-18T07:36:44;0.30;;;0.30;;
58567;SDS011;44354;46.192;-1.076;2022-12-18T07:39:10;0.63;;;0.38;;
58567;SDS011;44354;46.192;-1.076;2022-12-18T07:41:36;0.20;;;0.20;;
58567;SDS011;44354;46.192;-1.076;2022-12-18T07:44:03;0.35;;;0.32;;
58567;SDS011;44354;46.192;-1.076;2022-12-18T07:46:29;0.47;;;0.47;;
58567;SDS011;44354;46.192;-1.076;2022-12-18T07:48:55;0.20;;;0.20;;
58567;SDS011;44354;46.192;-1.076;2022-12-18T07:51:21;0.15;;;0.15;;
58567;SDS011;44354;46.192;-1.076;2022-12-18T07:53:48;1.05;;;1.05;;
58567;SDS011;44354;46.192;-1.076;2022-12-18T07:56:14;0.77;;;0.77;;
58567;SDS011;44354;46.192;-1.076;2022-12-18T07:58:39;0.17;;;0.17;;
58567;SDS011;44354;46.192;-1.076;2022-12-18T08:01:06;1.30;;;0.60;;
58567;SDS011;44354;46.192;-1.076;2022-12-18T08:03:34;0.10;;;0.10;;
58567;SDS011;44354;46.192;-1.076;2022-12-18T08:06:04;0.20;;;0.20;;
58567;SDS011;44354;46.192;-1.076;2022-12-18T08:08:32;0.10;;;0.10;;
58567;SDS011;44354;46.192;-1.076;2022-12-18T08:10:58;0.10;;;0.10;;
58567;SDS011;44354;46.192;-1.076;2022-12-18T08:13:24;0.40;;;0.40;;
58567;SDS011;44354;46.192;-1.076;2022-12-18T08:16:00;1.48;;;0.50;;
58567;SDS011;44354;46.192;-1.076;2022-12-18T08:18:32;0.63;;;0.63;;
58567;SDS011;44354;46.192;-1.076;2022-12-18T08:21:06;1.95;;;1.27;;
58567;SDS011;44354;46.192;-1.076;2022-12-18T08:23:42;0.00;;;0.00;;
58567;SDS011;44354;46.192;-1.076;2022-12-18T08:26:18;0.38;;;0.25;;
58567;SDS011;44354;46.192;-1.076;2022-12-18T08:31:32;1.88;;;0.20;;
58567;SDS011;44354;46.192;-1.076;2022-12-18T08:34:01;0.52;;;0.25;;
58567;SDS011;44354;46.192;-1.076;2022-12-18T08:42:28;0.00;;;0.00;;
58567;SDS011;44354;46.192;-1.076;2022-12-18T08:47:48;0.10;;;0.10;;
58567;SDS011;44354;46.192;-1.076;2022-12-18T08:50:33;0.00;;;0.00;;
58567;SDS011;44354;46.192;-1.076;2022-12-18T08:52:59;0.00;;;0.00;;
58567;SDS011;44354;46.192;-1.076;2022-12-18T08:55:38;0.00;;;0.00;;
58567;SDS011;44354;46.192;-1.076;2022-12-18T08:58:05;0.00;;;0.00;;
58567;SDS011;44354;46.192;-1.076;2022-12-18T09:00:30;0.10;;;0.10;;
58567;SDS011;44354;46.192;-1.076;2022-12-18T09:02:56;0.00;;;0.00;;
58567;SDS011;44354;46.192;-1.076;2022-12-18T09:05:22;0.57;;;0.22;;
58567;SDS011;44354;46.192;-1.076;2022-12-18T09:07:47;0.00;;;0.00;;
58567;SDS011;44354;46.192;-1.076;2022-12-18T09:10:13;0.20;;;0.20;;
58567;SDS011;44354;46.192;-1.076;2022-12-18T09:12:39;0.00;;;0.00;;
58567;SDS011;44354;46.192;-1.076;2022-12-18T09:15:04;1.15;;;0.52;;
58567;SDS011;44354;46.192;-1.076;2022-12-18T09:17:30;0.00;;;0.00;;
58567;SDS011;44354;46.192;-1.076;2022-12-18T09:19:56;0.52;;;0.52;;
58567;SDS011;44354;46.192;-1.076;2022-12-18T09:22:22;0.00;;;0.00;;
58567;SDS011;44354;46.192;-1.076;2022-12-18T09:24:48;0.45;;;0.45;;
58567;SDS011;44354;46.192;-1.076;2022-12-18T09:27:14;0.00;;;0.00;;
58567;SDS011;44354;46.192;-1.076;2022-12-18T09:29:39;3.65;;;1.38;;
58567;SDS011;44354;46.192;-1.076;2022-12-18T09:32:05;0.03;;;0.03;;
58567;SDS011;44354;46.192;-1.076;2022-12-18T09:34:31;0.00;;;0.00;;
58567;SDS011;44354;46.192;-1.076;2022-12-18T09:36:56;0.20;;;0.10;;
58567;SDS011;44354;46.192;-1.076;2022-12-18T09:39:22;0.00;;;0.00;;
58567;SDS011;44354;46.192;-1.076;2022-12-18T09:41:55;0.35;;;0.25;;
58567;SDS011;44354;46.192;-1.076;2022-12-18T09:44:24;1.90;;;0.75;;
58567;SDS011;44354;46.192;-1.076;2022-12-18T09:47:06;0.88;;;0.65;;
58567;SDS011;44354;46.192;-1.076;2022-12-18T09:49:46;1.48;;;1.48;;
58567;SDS011;44354;46.192;-1.076;2022-12-18T09:52:19;3.20;;;2.65;;
58567;SDS011;44354;46.192;-1.076;2022-12-18T09:55:09;1.08;;;1.08;;
58567;SDS011;44354;46.192;-1.076;2022-12-18T09:57:46;1.10;;;0.77;;
58567;SDS011;44354;46.192;-1.076;2022-12-18T10:00:17;0.10;;;0.10;;
58567;SDS011;44354;46.192;-1.076;2022-12-18T10:02:46;0.10;;;0.10;;
58567;SDS011;44354;46.192;-1.076;2022-12-18T10:07:43;0.22;;;0.22;;
58567;SDS011;44354;46.192;-1.076;2022-12-18T10:10:26;1.10;;;1.00;;
58567;SDS011;44354;46.192;-1.076;2022-12-18T10:18:41;0.90;;;0.90;;
58567;SDS011;44354;46.192;-1.076;2022-12-18T10:21:34;0.70;;;0.70;;
58567;SDS011;44354;46.192;-1.076;2022-12-18T10:25:01;0.38;;;0.38;;
58567;SDS011;44354;46.192;-1.076;2022-12-18T10:27:41;0.57;;;0.32;;
58567;SDS011;44354;46.192;-1.076;2022-12-18T10:30:14;1.92;;;1.83;;
58567;SDS011;44354;46.192;-1.076;2022-12-18T10:32:42;0.68;;;0.68;;
58567;SDS011;44354;46.192;-1.076;2022-12-18T10:35:11;0.38;;;0.38;;
58567;SDS011;44354;46.192;-1.076;2022-12-18T10:38:03;0.60;;;0.60;;
58567;SDS011;44354;46.192;-1.076;2022-12-18T10:40:32;1.38;;;1.27;;
58567;SDS011;44354;46.192;-1.076;2022-12-18T10:43:12;0.68;;;0.68;;
58567;SDS011;44354;46.192;-1.076;2022-12-18T10:45:39;0.50;;;0.50;;
58567;SDS011;44354;46.192;-1.076;2022-12-18T10:48:17;1.27;;;1.17;;
58567;SDS011;44354;46.192;-1.076;2022-12-18T10:50:50;1.13;;;1.02;;
58567;SDS011;44354;46.192;-1.076;2022-12-18T10:53:24;0.50;;;0.50;;
58567;SDS011;44354;46.192;-1.076;2022-12-18T10:55:51;1.13;;;1.00;;
58567;SDS011;44354;46.192;-1.076;2022-12-18T10:58:24;0.70;;;0.70;;
58567;SDS011;44354;46.192;-1.076;2022-12-18T11:01:18;0.55;;;0.55;;
58567;SDS011;44354;46.192;-1.076;2022-12-18T11:06:20;0.70;;;0.70;;
58567;SDS011;44354;46.192;-1.076;2022-12-18T11:11:53;3.05;;;2.33;;
58567;SDS011;44354;46.192;-1.076;2022-12-18T11:14:22;7.13;;;4.53;;
58567;SDS011;44354;46.192;-1.076;2022-12-18T11:16:59;18.67;;;4.30;;
58567;SDS011;44354;46.192;-1.076;2022-12-18T11:19:30;6.88;;;4.57;;
58567;SDS011;44354;46.192;-1.076;2022-12-18T11:21:58;5.90;;;4.22;;
58567;SDS011;44354;46.192;-1.076;2022-12-18T11:24:32;6.88;;;5.03;;
58567;SDS011;44354;46.192;-1.076;2022-12-18T11:27:00;7.53;;;4.85;;
58567;SDS011;44354;46.192;-1.076;2022-12-18T11:29:30;8.02;;;4.72;;
58567;SDS011;44354;46.192;-1.076;2022-12-18T11:35:14;7.03;;;5.32;;
58567;SDS011;44354;46.192;-1.076;2022-12-18T11:37:52;9.18;;;5.20;;
58567;SDS011;44354;46.192;-1.076;2022-12-18T11:40:26;10.48;;;6.65;;
58567;SDS011;44354;46.192;-1.076;2022-12-18T11:43:10;29.85;;;15.10;;
58567;SDS011;44354;46.192;-1.076;2022-12-18T11:45:42;31.58;;;15.63;;
58567;SDS011;44354;46.192;-1.076;2022-12-18T11:54:15;12.38;;;8.88;;
58567;SDS011;44354;46.192;-1.076;2022-12-18T12:01:55;12.00;;;7.90;;
58567;SDS011;44354;46.192;-1.076;2022-12-18T12:23:23;6.13;;;4.90;;
58567;SDS011;44354;46.192;-1.076;2022-12-18T12:26:07;6.63;;;5.43;;
58567;SDS011;44354;46.192;-1.076;2022-12-18T12:38:55;5.30;;;3.83;;
58567;SDS011;44354;46.192;-1.076;2022-12-18T12:41:25;4.50;;;3.33;;
58567;SDS011;44354;46.192;-1.076;2022-12-18T12:44:19;4.90;;;3.55;;
58567;SDS011;44354;46.192;-1.076;2022-12-18T12:46:51;5.97;;;3.85;;
58567;SDS011;44354;46.192;-1.076;2022-12-18T12:49:21;4.00;;;3.50;;
58567;SDS011;44354;46.192;-1.076;2022-12-18T12:51:53;5.05;;;3.67;;
58567;SDS011;44354;46.192;-1.076;2022-12-18T12:54:29;5.82;;;4.30;;
58567;SDS011;44354;46.192;-1.076;2022-12-18T12:57:00;6.57;;;4.00;;
58567;SDS011;44354;46.192;-1.076;2022-12-18T13:02:37;5.38;;;4.30;;
58567;SDS011;44354;46.192;-1.076;2022-12-18T13:07:53;6.43;;;4.68;;
58567;SDS011;44354;46.192;-1.076;2022-12-18T13:18:25;5.80;;;4.53;;
58567;SDS011;44354;46.192;-1.076;2022-12-18T13:25:50;6.10;;;4.18;;
58567;SDS011;44354;46.192;-1.076;2022-12-18T13:28:18;5.55;;;4.22;;
58567;SDS011;44354;46.192;-1.076;2022-12-18T13:30:58;4.32;;;3.92;;
58567;SDS011;44354;46.192;-1.076;2022-12-18T13:38:22;7.22;;;4.78;;
58567;SDS011;44354;46.192;-1.076;2022-12-18T13:40:58;5.65;;;4.30;;
58567;SDS011;44354;46.192;-1.076;2022-12-18T13:48:34;6.13;;;4.68;;
58567;SDS011;44354;46.192;-1.076;2022-12-18T13:51:04;6.82;;;5.50;;
58567;SDS011;44354;46.192;-1.076;2022-12-18T13:53:44;8.38;;;5.95;;
58567;SDS011;44354;46.192;-1.076;2022-12-18T13:56:15;16.13;;;9.82;;
58567;SDS011;44354;46.192;-1.076;2022-12-18T13:59:03;14.68;;;8.95;;
58567;SDS011;44354;46.192;-1.076;2022-12-18T14:01:41;17.75;;;11.50;;
58567;SDS011;44354;46.192;-1.076;2022-12-18T14:04:50;15.90;;;10.70;;
58567;SDS011;44354;46.192;-1.076;2022-12-18T14:07:04;15.70;;;10.02;;
58567;SDS011;44354;46.192;-1.076;2022-12-18T14:12:28;15.70;;;10.07;;
58567;SDS011;44354;46.192;-1.076;2022-12-18T14:17:47;9.70;;;6.63;;
58567;SDS011;44354;46.192;-1.076;2022-12-18T14:20:14;11.55;;;7.85;;
58567;SDS011;44354;46.192;-1.076;2022-12-18T14:22:48;10.13;;;7.60;;
58567;SDS011;44354;46.192;-1.076;2022-12-18T14:25:16;16.85;;;9.90;;
58567;SDS011;44354;46.192;-1.076;2022-12-18T14:27:49;11.13;;;8.85;;
58567;SDS011;44354;46.192;-1.076;2022-12-18T14:33:02;9.63;;;7.60;;
58567;SDS011;44354;46.192;-1.076;2022-12-18T14:35:36;6.78;;;4.97;;
58567;SDS011;44354;46.192;-1.076;2022-12-18T14:38:11;7.43;;;5.30;;
58567;SDS011;44354;46.192;-1.076;2022-12-18T14:41:10;5.93;;;4.57;;
58567;SDS011;44354;46.192;-1.076;2022-12-18T14:43:38;6.68;;;4.90;;
58567;SDS011;44354;46.192;-1.076;2022-12-18T14:46:06;6.88;;;5.05;;
58567;SDS011;44354;46.192;-1.076;2022-12-18T14:48:52;6.07;;;4.78;;
58567;SDS011;44354;46.192;-1.076;2022-12-18T14:51:19;7.65;;;4.45;;
58567;SDS011;44354;46.192;-1.076;2022-12-18T14:54:00;6.80;;;4.68;;
58567;SDS011;44354;46.192;-1.076;2022-12-18T14:58:59;5.35;;;4.72;;
58567;SDS011;44354;46.192;-1.076;2022-12-18T15:01:44;7.85;;;4.68;;
58567;SDS011;44354;46.192;-1.076;2022-12-18T15:04:35;9.30;;;5.05;;
58567;SDS011;44354;46.192;-1.076;2022-12-18T15:07:21;6.07;;;4.63;;
58567;SDS011;44354;46.192;-1.076;2022-12-18T15:12:42;6.60;;;4.78;;
58567;SDS011;44354;46.192;-1.076;2022-12-18T15:20:32;5.45;;;4.60;;
58567;SDS011;44354;46.192;-1.076;2022-12-18T15:23:04;6.22;;;5.38;;
58567;SDS011;44354;46.192;-1.076;2022-12-18T15:25:36;6.30;;;4.60;;
58567;SDS011;44354;46.192;-1.076;2022-12-18T15:28:04;6.68;;;5.40;;
58567;SDS011;44354;46.192;-1.076;2022-12-18T15:31:03;5.45;;;4.63;;
58567;SDS011;44354;46.192;-1.076;2022-12-18T15:33:41;6.43;;;5.25;;
58567;SDS011;44354;46.192;-1.076;2022-12-18T15:36:12;5.80;;;4.60;;
58567;SDS011;44354;46.192;-1.076;2022-12-18T15:38:39;5.80;;;4.70;;
58567;SDS011;44354;46.192;-1.076;2022-12-18T15:41:05;5.70;;;4.50;;
58567;SDS011;44354;46.192;-1.076;2022-12-18T15:43:30;5.25;;;4.68;;
58567;SDS011;44354;46.192;-1.076;2022-12-18T15:46:00;7.18;;;5.22;;
58567;SDS011;44354;46.192;-1.076;2022-12-18T15:48:26;6.95;;;5.20;;
58567;SDS011;44354;46.192;-1.076;2022-12-18T15:50:53;5.78;;;4.60;;
58567;SDS011;44354;46.192;-1.076;2022-12-18T15:53:21;5.72;;;4.95;;
58567;SDS011;44354;46.192;-1.076;2022-12-18T15:55:48;5.13;;;4.45;;
58567;SDS011;44354;46.192;-1.076;2022-12-18T15:58:32;6.00;;;5.35;;
58567;SDS011;44354;46.192;-1.076;2022-12-18T16:00:58;5.57;;;5.00;;
58567;SDS011;44354;46.192;-1.076;2022-12-18T16:03:25;5.93;;;4.82;;
58567;SDS011;44354;46.192;-1.076;2022-12-18T16:05:51;6.25;;;5.25;;
58567;SDS011;44354;46.192;-1.076;2022-12-18T16:08:17;5.88;;;5.00;;
58567;SDS011;44354;46.192;-1.076;2022-12-18T16:10:42;6.80;;;4.82;;
58567;SDS011;44354;46.192;-1.076;2022-12-18T16:13:11;6.93;;;5.10;;
58567;SDS011;44354;46.192;-1.076;2022-12-18T16:15:40;6.05;;;4.72;;
58567;SDS011;44354;46.192;-1.076;2022-12-18T16:18:06;6.47;;;5.05;;
58567;SDS011;44354;46.192;-1.076;2022-12-18T16:20:32;6.40;;;5.20;;
58567;SDS011;44354;46.192;-1.076;2022-12-18T16:22:57;5.75;;;5.18;;
58567;SDS011;44354;46.192;-1.076;2022-12-18T16:25:24;5.22;;;4.50;;
58567;SDS011;44354;46.192;-1.076;2022-12-18T16:27:51;6.47;;;4.97;;
58567;SDS011;44354;46.192;-1.076;2022-12-18T16:30:25;5.10;;;4.60;;
58567;SDS011;44354;46.192;-1.076;2022-12-18T16:33:01;5.68;;;4.50;;
58567;SDS011;44354;46.192;-1.076;2022-12-18T16:35:27;5.82;;;4.85;;
58567;SDS011;44354;46.192;-1.076;2022-12-18T16:37:53;6.20;;;4.88;;
58567;SDS011;44354;46.192;-1.076;2022-12-18T16:40:18;6.05;;;4.80;;
58567;SDS011;44354;46.192;-1.076;2022-12-18T16:42:45;6.00;;;4.80;;
58567;SDS011;44354;46.192;-1.076;2022-12-18T16:45:12;6.25;;;5.65;;
58567;SDS011;44354;46.192;-1.076;2022-12-18T16:47:40;5.03;;;4.53;;
58567;SDS011;44354;46.192;-1.076;2022-12-18T16:50:06;5.95;;;5.00;;
58567;SDS011;44354;46.192;-1.076;2022-12-18T16:52:32;6.07;;;5.15;;
58567;SDS011;44354;46.192;-1.076;2022-12-18T16:54:59;7.95;;;4.97;;
58567;SDS011;44354;46.192;-1.076;2022-12-18T16:57:24;6.80;;;5.05;;
58567;SDS011;44354;46.192;-1.076;2022-12-18T16:59:50;5.63;;;5.05;;
58567;SDS011;44354;46.192;-1.076;2022-12-18T17:02:17;6.72;;;4.97;;
58567;SDS011;44354;46.192;-1.076;2022-12-18T17:04:44;5.75;;;5.18;;
58567;SDS011;44354;46.192;-1.076;2022-12-18T17:07:14;5.32;;;4.85;;
58567;SDS011;44354;46.192;-1.076;2022-12-18T17:09:40;5.93;;;5.43;;
58567;SDS011;44354;46.192;-1.076;2022-12-18T17:12:07;6.63;;;5.05;;
58567;SDS011;44354;46.192;-1.076;2022-12-18T17:14:33;6.40;;;5.60;;
58567;SDS011;44354;46.192;-1.076;2022-12-18T17:16:59;5.78;;;5.25;;
58567;SDS011;44354;46.192;-1.076;2022-12-18T17:19:26;7.32;;;5.65;;
58567;SDS011;44354;46.192;-1.076;2022-12-18T17:21:53;5.95;;;5.45;;
58567;SDS011;44354;46.192;-1.076;2022-12-18T17:24:21;6.03;;;5.53;;
58567;SDS011;44354;46.192;-1.076;2022-12-18T17:26:47;6.15;;;5.55;;